createdAt,value
2023-01-25T00:01:14.993Z,1.90
2023-01-25T00:03:27.967Z,1.60
2023-01-25T00:05:40.942Z,2.30
2023-01-25T00:07:53.735Z,1.50
2023-01-25T00:10:09.801Z,2.00
2023-01-25T00:12:23.632Z,1.50
2023-01-25T00:14:36.993Z,1.80
2023-01-25T00:16:49.876Z,2.10
2023-01-25T00:19:02.655Z,1.50
2023-01-25T00:21:23.803Z,1.90
2023-01-25T00:23:41.408Z,1.70
2023-01-25T00:25:59.685Z,1.50
2023-01-25T00:28:12.912Z,1.40
2023-01-25T00:30:29.078Z,2.00
2023-01-25T00:33:06.367Z,1.70
2023-01-25T00:35:19.367Z,1.80
2023-01-25T00:37:39.922Z,2.80
2023-01-25T00:39:53.017Z,1.90
2023-01-25T00:42:06.503Z,2.00
2023-01-25T00:44:20.101Z,1.90
2023-01-25T00:46:33.080Z,2.00
2023-01-25T00:48:46.071Z,2.20
2023-01-25T00:51:03.718Z,1.80
2023-01-25T00:53:17.438Z,2.40
2023-01-25T00:55:30.800Z,2.50
2023-01-25T00:57:45.971Z,2.40
2023-01-25T01:00:00.245Z,3.00
2023-01-25T01:02:13.242Z,2.80
2023-01-25T01:04:28.239Z,2.80
2023-01-25T01:06:42.776Z,2.40
2023-01-25T01:08:55.471Z,2.40
2023-01-25T01:11:12.231Z,2.70
2023-01-25T01:13:25.201Z,2.80
2023-01-25T01:15:42.095Z,2.90
2023-01-25T01:17:55.041Z,2.70
2023-01-25T01:20:08.624Z,2.80
2023-01-25T01:22:21.740Z,2.90
2023-01-25T01:24:35.255Z,3.60
2023-01-25T01:26:48.770Z,3.50
2023-01-25T01:29:02.041Z,3.50
2023-01-25T01:31:18.884Z,3.50
2023-01-25T01:33:38.410Z,3.00
2023-01-25T01:35:51.845Z,3.20
2023-01-25T01:38:06.063Z,2.60
2023-01-25T01:40:21.337Z,2.60
2023-01-25T01:42:35.370Z,2.30
2023-01-25T01:44:54.314Z,2.10
2023-01-25T01:47:08.978Z,2.20
2023-01-25T01:49:27.297Z,2.00
2023-01-25T01:51:51.523Z,2.50
2023-01-25T01:54:12.018Z,2.20
2023-01-25T01:56:28.956Z,2.20
2023-01-25T01:58:45.194Z,2.60
2023-01-25T02:00:58.421Z,2.30
2023-01-25T02:03:14.864Z,2.00
2023-01-25T02:05:39.454Z,2.10
2023-01-25T02:07:57.127Z,2.10
2023-01-25T02:10:13.121Z,2.00
2023-01-25T02:12:30.032Z,2.40
2023-01-25T02:14:48.448Z,3.50
2023-01-25T02:17:07.250Z,2.50
2023-01-25T02:19:42.245Z,2.50
2023-01-25T02:22:01.453Z,3.50
2023-01-25T02:24:22.055Z,2.90
2023-01-25T02:26:34.999Z,3.90
2023-01-25T02:28:52.646Z,2.70
2023-01-25T02:31:11.967Z,3.40
2023-01-25T02:33:25.804Z,3.20
2023-01-25T02:35:52.417Z,2.90
2023-01-25T02:38:06.757Z,2.60
2023-01-25T02:40:20.687Z,2.80
2023-01-25T02:42:36.793Z,2.90
2023-01-25T02:44:51.886Z,3.10
2023-01-25T02:47:05.337Z,3.00
2023-01-25T02:49:18.867Z,3.60
2023-01-25T02:51:37.142Z,3.60
2023-01-25T02:53:50.868Z,4.40
2023-01-25T02:56:06.162Z,4.70
2023-01-25T02:58:22.401Z,4.00
2023-01-25T03:00:35.726Z,4.10
2023-01-25T03:02:49.523Z,4.20
2023-01-25T03:05:02.607Z,4.60
2023-01-25T03:07:15.780Z,4.70
2023-01-25T03:09:30.537Z,4.50
2023-01-25T03:11:45.613Z,4.20
2023-01-25T03:13:58.690Z,5.00
2023-01-25T03:16:13.657Z,5.20
2023-01-25T03:18:28.399Z,4.60
2023-01-25T03:20:41.775Z,5.10
2023-01-25T03:22:55.206Z,5.00
2023-01-25T03:25:08.577Z,4.80
2023-01-25T03:27:22.106Z,4.70
2023-01-25T03:29:56.463Z,5.00
2023-01-25T03:32:12.066Z,5.40
2023-01-25T03:34:25.751Z,4.90
2023-01-25T03:36:39.576Z,5.20
2023-01-25T03:38:52.940Z,4.70
2023-01-25T03:41:06.508Z,5.10
2023-01-25T03:43:21.536Z,5.40
2023-01-25T03:45:35.204Z,5.50
2023-01-25T03:47:48.528Z,5.10
2023-01-25T03:50:01.524Z,5.10
2023-01-25T03:52:14.925Z,5.50
2023-01-25T03:54:28.435Z,5.60
2023-01-25T03:56:41.842Z,4.70
2023-01-25T03:59:03.082Z,5.20
2023-01-25T04:01:17.143Z,5.00
2023-01-25T04:03:31.409Z,5.20
2023-01-25T04:05:45.352Z,5.20
2023-01-25T04:07:58.508Z,5.00
2023-01-25T04:10:19.512Z,5.50
2023-01-25T04:12:34.238Z,4.70
2023-01-25T04:14:47.277Z,5.00
2023-01-25T04:17:06.537Z,5.60
2023-01-25T04:19:24.318Z,5.50
2023-01-25T04:21:37.832Z,5.80
2023-01-25T04:23:51.120Z,5.20
2023-01-25T04:26:07.251Z,6.30
2023-01-25T04:28:20.575Z,5.80
2023-01-25T04:30:34.669Z,6.10
2023-01-25T04:32:47.905Z,5.40
2023-01-25T04:35:13.490Z,5.30
2023-01-25T04:37:26.491Z,5.70
2023-01-25T04:39:43.213Z,5.60
2023-01-25T04:41:59.389Z,5.60
2023-01-25T04:44:12.669Z,5.30
2023-01-25T04:46:27.177Z,5.60
2023-01-25T04:48:41.145Z,6.20
2023-01-25T04:50:56.795Z,5.90
2023-01-25T04:53:10.527Z,6.30
2023-01-25T04:55:24.527Z,5.90
2023-01-25T04:57:38.304Z,6.20
2023-01-25T04:59:54.848Z,5.90
2023-01-25T05:02:08.549Z,5.90
2023-01-25T05:04:21.683Z,6.10
2023-01-25T05:06:36.031Z,6.00
2023-01-25T05:08:49.115Z,6.10
2023-01-25T05:11:02.413Z,5.70
2023-01-25T05:13:24.270Z,5.90
2023-01-25T05:15:44.375Z,5.90
2023-01-25T05:17:57.682Z,6.00
2023-01-25T05:20:15.653Z,5.40
2023-01-25T05:22:28.460Z,6.10
2023-01-25T05:24:44.140Z,7.00
2023-01-25T05:27:09.251Z,7.30
2023-01-25T05:29:42.166Z,6.60
2023-01-25T05:31:55.164Z,6.30
2023-01-25T05:34:07.905Z,6.10
2023-01-25T05:36:20.669Z,6.10
2023-01-25T05:38:34.554Z,6.30
2023-01-25T05:40:47.803Z,6.00
2023-01-25T05:43:04.325Z,6.20
2023-01-25T05:45:19.255Z,6.90
2023-01-25T05:47:32.627Z,6.50
2023-01-25T05:49:45.583Z,6.50
2023-01-25T05:52:04.328Z,6.00
2023-01-25T05:54:19.436Z,6.30
2023-01-25T05:56:38.154Z,6.50
2023-01-25T05:58:50.785Z,7.10
2023-01-25T06:01:05.716Z,7.10
2023-01-25T06:03:24.606Z,7.40
2023-01-25T06:05:37.306Z,6.60
2023-01-25T06:07:51.182Z,6.20
2023-01-25T06:10:05.448Z,7.10
2023-01-25T06:12:17.943Z,7.00
2023-01-25T06:14:30.455Z,7.10
2023-01-25T06:16:44.068Z,7.00
2023-01-25T06:19:29.233Z,7.80
2023-01-25T06:21:56.334Z,8.00
2023-01-25T06:24:09.867Z,7.70
2023-01-25T06:26:22.918Z,6.90
2023-01-25T06:28:40.975Z,7.30
2023-01-25T06:30:53.640Z,7.90
2023-01-25T06:33:07.151Z,7.30
2023-01-25T06:35:20.492Z,7.10
2023-01-25T06:37:33.355Z,7.80
2023-01-25T06:39:46.381Z,7.50
2023-01-25T06:41:59.198Z,8.10
2023-01-25T06:44:11.881Z,7.80
2023-01-25T06:46:25.056Z,8.30
2023-01-25T06:48:38.680Z,8.50
2023-01-25T06:50:56.379Z,8.60
2023-01-25T06:53:08.801Z,7.40
2023-01-25T06:55:21.437Z,8.50
2023-01-25T06:57:33.877Z,7.90
2023-01-25T06:59:46.621Z,8.10
2023-01-25T07:01:59.087Z,7.30
2023-01-25T07:04:12.941Z,7.00
2023-01-25T07:06:25.892Z,7.70
2023-01-25T07:08:38.873Z,7.40
2023-01-25T07:11:02.197Z,7.40
2023-01-25T07:13:15.761Z,7.30
2023-01-25T07:15:28.310Z,8.10
2023-01-25T07:17:41.039Z,6.80
2023-01-25T07:19:53.733Z,8.40
2023-01-25T07:22:06.652Z,5.90
2023-01-25T07:24:21.258Z,7.10
2023-01-25T07:26:34.909Z,7.90
2023-01-25T07:28:48.915Z,7.80
2023-01-25T07:31:07.117Z,6.80
2023-01-25T07:33:20.637Z,8.10
2023-01-25T07:35:34.215Z,7.60
2023-01-25T07:37:47.434Z,7.50
2023-01-25T07:40:00.148Z,6.90
2023-01-25T07:42:13.064Z,7.70
2023-01-25T07:44:33.664Z,8.20
2023-01-25T07:47:01.638Z,8.40
2023-01-25T07:49:14.420Z,7.30
2023-01-25T07:51:28.922Z,7.50
2023-01-25T07:53:42.147Z,7.50
2023-01-25T07:55:55.124Z,7.80
2023-01-25T07:58:08.357Z,8.20
2023-01-25T08:00:24.017Z,8.30
2023-01-25T08:02:36.834Z,8.40
2023-01-25T08:04:49.978Z,7.70
2023-01-25T08:07:02.991Z,8.10
2023-01-25T08:09:20.900Z,8.70
2023-01-25T08:11:35.165Z,8.60
2023-01-25T08:13:50.204Z,9.40
2023-01-25T08:16:03.173Z,9.10
2023-01-25T08:18:16.165Z,8.50
2023-01-25T08:20:28.940Z,8.60
2023-01-25T08:22:42.304Z,8.30
2023-01-25T08:24:55.311Z,8.00
2023-01-25T08:27:08.330Z,8.10
2023-01-25T08:29:22.596Z,8.70
2023-01-25T08:31:37.532Z,7.90
2023-01-25T08:33:50.992Z,8.20
2023-01-25T08:36:07.168Z,8.80
2023-01-25T08:38:22.027Z,8.30
2023-01-25T08:40:38.252Z,8.70
2023-01-25T08:42:51.641Z,8.70
2023-01-25T08:45:04.859Z,7.90
2023-01-25T08:47:18.702Z,8.10
2023-01-25T08:49:32.271Z,8.40
2023-01-25T08:51:45.297Z,7.90
2023-01-25T08:54:02.868Z,7.90
2023-01-25T08:56:19.116Z,9.20
2023-01-25T08:58:32.835Z,8.00
2023-01-25T09:00:46.813Z,8.40
2023-01-25T09:02:59.613Z,7.60
2023-01-25T09:05:13.429Z,8.00
2023-01-25T09:07:26.738Z,8.20
2023-01-25T09:09:40.158Z,7.90
2023-01-25T09:11:53.133Z,7.70
2023-01-25T09:14:05.814Z,8.50
2023-01-25T09:16:23.783Z,9.20
2023-01-25T09:18:36.885Z,8.20
2023-01-25T09:20:49.746Z,9.10
2023-01-25T09:23:03.091Z,7.40
2023-01-25T09:25:16.110Z,7.40
2023-01-25T09:27:29.062Z,8.70
2023-01-25T09:29:49.580Z,7.80
2023-01-25T09:32:13.468Z,8.10
2023-01-25T09:34:37.939Z,9.30
2023-01-25T09:36:50.704Z,8.60
2023-01-25T09:39:03.636Z,7.80
2023-01-25T09:41:38.506Z,8.50
2023-01-25T09:44:14.578Z,7.90
2023-01-25T09:46:38.706Z,7.90
2023-01-25T09:49:07.422Z,8.30
2023-01-25T09:51:29.901Z,8.40
2023-01-25T09:53:44.837Z,8.10
2023-01-25T09:56:00.767Z,8.50
2023-01-25T09:58:23.523Z,8.30
2023-01-25T10:00:41.032Z,8.10
2023-01-25T10:02:58.006Z,8.40
2023-01-25T10:05:16.869Z,7.90
2023-01-25T10:07:34.130Z,7.70
2023-01-25T10:09:53.125Z,8.70
2023-01-25T10:12:16.273Z,7.90
2023-01-25T10:14:29.405Z,7.60
2023-01-25T10:16:49.973Z,8.20
2023-01-25T10:19:15.796Z,7.90
2023-01-25T10:21:36.717Z,8.70
2023-01-25T10:24:09.073Z,8.70
2023-01-25T10:26:30.329Z,7.90
2023-01-25T10:28:49.706Z,8.70
2023-01-25T10:31:08.297Z,8.00
2023-01-25T10:33:23.599Z,7.70
2023-01-25T10:35:44.237Z,8.50
2023-01-25T10:38:02.408Z,8.10
2023-01-25T10:40:22.785Z,7.80
2023-01-25T10:42:42.430Z,7.40
2023-01-25T10:44:55.101Z,8.20
2023-01-25T10:47:20.504Z,7.80
2023-01-25T10:49:39.711Z,7.80
2023-01-25T10:51:52.461Z,8.50
2023-01-25T10:54:08.672Z,8.30
2023-01-25T10:56:27.929Z,8.40
2023-01-25T10:58:42.991Z,7.80
2023-01-25T11:00:56.940Z,7.70
2023-01-25T11:03:23.464Z,6.90
2023-01-25T11:05:39.017Z,8.60
2023-01-25T11:07:52.201Z,7.60
2023-01-25T11:10:05.208Z,7.60
2023-01-25T11:12:27.024Z,7.70
2023-01-25T11:14:40.658Z,7.40
2023-01-25T11:16:54.123Z,8.30
2023-01-25T11:19:27.077Z,8.40
2023-01-25T11:21:40.222Z,7.60
2023-01-25T11:24:07.540Z,7.30
2023-01-25T11:26:22.498Z,7.60
2023-01-25T11:28:35.241Z,8.80
2023-01-25T11:30:48.846Z,7.80
2023-01-25T11:33:03.921Z,8.00
2023-01-25T11:35:32.082Z,8.20
2023-01-25T11:38:02.810Z,8.30
2023-01-25T11:40:24.605Z,8.30
2023-01-25T11:42:46.068Z,8.30
2023-01-25T11:45:30.815Z,8.20
2023-01-25T11:47:58.181Z,7.70
2023-01-25T11:50:17.530Z,7.10
2023-01-25T11:52:43.724Z,8.20
2023-01-25T11:55:07.057Z,7.80
2023-01-25T11:57:45.189Z,8.80
2023-01-25T12:00:12.888Z,7.40
2023-01-25T12:02:58.181Z,7.50
2023-01-25T12:05:27.850Z,8.80
2023-01-25T12:07:50.944Z,7.70
2023-01-25T12:10:18.537Z,7.80
2023-01-25T12:12:43.883Z,7.70
2023-01-25T12:15:26.282Z,8.20
2023-01-25T12:17:52.825Z,8.00
2023-01-25T12:20:32.750Z,8.00
2023-01-25T12:23:05.165Z,8.60
2023-01-25T12:27:47.429Z,7.80
2023-01-25T12:30:08.033Z,7.70
2023-01-25T12:32:26.984Z,7.80
2023-01-25T12:34:43.351Z,7.90
2023-01-25T12:36:57.261Z,7.60
2023-01-25T12:39:18.042Z,8.20
2023-01-25T12:41:42.637Z,8.00
2023-01-25T12:44:01.338Z,8.60
2023-01-25T12:46:24.951Z,7.50
2023-01-25T12:48:44.309Z,7.90
2023-01-25T12:51:01.067Z,8.70
2023-01-25T12:53:21.903Z,8.10
2023-01-25T12:55:36.309Z,8.50
2023-01-25T12:57:58.149Z,8.70
2023-01-25T13:00:21.533Z,8.20
2023-01-25T13:02:55.618Z,8.70
2023-01-25T13:05:20.516Z,8.80
2023-01-25T13:07:40.725Z,7.80
2023-01-25T13:10:01.663Z,8.60
2023-01-25T13:12:16.855Z,7.70
2023-01-25T13:14:42.440Z,7.60
2023-01-25T13:17:09.302Z,7.30
2023-01-25T13:19:45.519Z,7.50
2023-01-25T13:21:59.554Z,7.40
2023-01-25T13:24:27.370Z,9.60
2023-01-25T13:26:54.061Z,9.50
2023-01-25T13:29:06.647Z,9.20
2023-01-25T13:31:54.199Z,9.70
2023-01-25T13:34:07.949Z,8.90
2023-01-25T13:36:48.532Z,10.80
2023-01-25T13:39:02.966Z,9.50
2023-01-25T13:41:34.255Z,9.80
2023-01-25T13:43:50.043Z,8.90
2023-01-25T13:46:03.316Z,9.40
2023-01-25T13:48:23.019Z,9.10
2023-01-25T13:50:41.234Z,9.40
2023-01-25T13:53:05.396Z,9.60
2023-01-25T13:55:27.019Z,9.90
2023-01-25T13:57:39.723Z,9.10
2023-01-25T14:00:09.928Z,9.20
2023-01-25T14:02:26.866Z,9.00
2023-01-25T14:04:40.087Z,9.40
2023-01-25T14:06:59.316Z,9.20
2023-01-25T14:09:21.171Z,9.60
2023-01-25T14:11:35.592Z,9.90
2023-01-25T14:14:02.540Z,7.90
2023-01-25T14:16:16.793Z,7.80
2023-01-25T14:18:34.396Z,7.40
2023-01-25T14:20:48.377Z,8.20
2023-01-25T14:23:01.100Z,8.00
2023-01-25T14:25:20.727Z,8.00
2023-01-25T14:27:34.220Z,7.50
2023-01-25T14:29:51.208Z,7.10
2023-01-25T14:32:04.386Z,8.70
2023-01-25T14:34:23.775Z,8.70
2023-01-25T14:36:39.193Z,9.50
2023-01-25T14:38:52.431Z,9.60
2023-01-25T14:41:11.535Z,8.10
2023-01-25T14:43:25.809Z,9.30
2023-01-25T14:45:38.714Z,8.80
2023-01-25T14:47:59.498Z,10.00
2023-01-25T14:50:39.815Z,8.80
2023-01-25T14:52:53.291Z,8.50
2023-01-25T14:55:06.451Z,9.10
2023-01-25T14:57:35.796Z,8.50
2023-01-25T14:59:54.767Z,9.10
2023-01-25T15:02:17.171Z,8.90
2023-01-25T15:04:30.595Z,9.40
2023-01-25T15:06:52.718Z,8.20
2023-01-25T15:24:18.425Z,8.90
2023-01-25T15:26:33.057Z,8.40
2023-01-25T15:28:46.144Z,8.50
2023-01-25T15:31:00.688Z,8.90
2023-01-25T15:33:20.407Z,7.00
2023-01-25T15:35:33.395Z,7.70
2023-01-25T15:37:49.351Z,7.30
2023-01-25T15:40:03.069Z,8.00
2023-01-25T15:42:16.307Z,8.00
2023-01-25T15:44:30.798Z,7.60
2023-01-25T15:46:46.038Z,8.20
2023-01-25T15:48:59.711Z,8.70
2023-01-25T15:51:14.163Z,9.00
2023-01-25T15:53:28.052Z,8.70
2023-01-25T15:55:41.269Z,8.20
2023-01-25T15:57:55.452Z,8.30
2023-01-25T16:00:09.945Z,8.00
2023-01-25T16:02:23.392Z,9.90
2023-01-25T16:04:36.400Z,8.40
2023-01-25T16:06:52.353Z,9.10
2023-01-25T16:09:06.975Z,9.50
2023-01-25T16:11:20.841Z,9.60
2023-01-25T16:13:33.619Z,9.50
2023-01-25T16:15:49.802Z,9.20
2023-01-25T16:18:02.797Z,8.80
2023-01-25T16:20:22.350Z,10.00
2023-01-25T16:22:35.700Z,10.10
2023-01-25T16:24:48.733Z,9.50
2023-01-25T16:27:04.065Z,9.80
2023-01-25T16:29:17.921Z,10.20
2023-01-25T16:31:33.264Z,9.80
2023-01-25T16:33:46.527Z,9.90
2023-01-25T16:36:16.038Z,9.40
2023-01-25T16:38:29.036Z,9.50
2023-01-25T16:40:42.292Z,9.90
2023-01-25T16:42:55.532Z,9.80
2023-01-25T16:45:09.458Z,10.60
2023-01-25T16:47:22.340Z,8.70
2023-01-25T16:49:36.550Z,9.40
2023-01-25T16:51:50.133Z,9.70
2023-01-25T16:54:03.445Z,9.60
2023-01-25T16:56:22.467Z,10.00
2023-01-25T16:58:35.161Z,9.70
2023-01-25T17:00:49.010Z,9.40
2023-01-25T17:03:02.304Z,10.20
2023-01-25T17:05:15.754Z,9.40
2023-01-25T17:07:28.526Z,9.40
2023-01-25T17:09:41.226Z,10.80
2023-01-25T17:11:53.838Z,11.20
2023-01-25T17:14:07.573Z,9.90
2023-01-25T17:16:20.830Z,9.70
2023-01-25T17:18:33.803Z,9.90
2023-01-25T17:20:46.966Z,10.30
2023-01-25T17:23:00.368Z,10.10
2023-01-25T17:25:14.349Z,10.10
2023-01-25T17:27:27.200Z,10.30
2023-01-25T17:29:42.065Z,10.20
2023-01-25T17:31:56.360Z,10.30
2023-01-25T17:34:12.080Z,10.70
2023-01-25T17:36:26.644Z,11.40
2023-01-25T17:38:39.438Z,11.60
2023-01-25T17:40:51.991Z,11.20
2023-01-25T17:43:05.332Z,11.90
2023-01-25T17:45:18.615Z,10.90
2023-01-25T17:47:32.792Z,11.00
2023-01-25T17:49:46.173Z,11.30
2023-01-25T17:51:59.081Z,11.30
2023-01-25T17:54:11.832Z,11.70
2023-01-25T17:56:24.581Z,11.90
2023-01-25T17:58:38.402Z,11.80
2023-01-25T18:00:52.455Z,12.60
2023-01-25T18:03:06.749Z,11.20
2023-01-25T18:05:19.580Z,12.00
2023-01-25T18:07:32.924Z,11.50
2023-01-25T18:09:45.456Z,11.10
2023-01-25T18:11:58.072Z,11.50
2023-01-25T18:14:13.688Z,11.00
2023-01-25T18:16:27.953Z,11.00
2023-01-25T18:18:41.164Z,11.80
2023-01-25T18:20:53.848Z,12.10
2023-01-25T18:23:06.492Z,11.40
2023-01-25T18:25:37.289Z,12.20
2023-01-25T18:27:50.276Z,11.70
2023-01-25T18:30:10.399Z,10.70
2023-01-25T18:32:23.639Z,10.90
2023-01-25T18:34:36.803Z,11.80
2023-01-25T18:36:49.845Z,11.50
2023-01-25T18:39:02.584Z,10.90
2023-01-25T18:41:15.525Z,11.60
2023-01-25T18:43:29.231Z,10.90
2023-01-25T18:45:42.572Z,11.30
2023-01-25T18:47:55.451Z,10.10
2023-01-25T18:50:08.784Z,11.20
2023-01-25T18:52:22.132Z,11.30
2023-01-25T18:54:34.712Z,10.70
2023-01-25T18:56:47.583Z,11.30
2023-01-25T18:59:01.444Z,10.10
2023-01-25T19:01:17.309Z,10.60
2023-01-25T19:03:31.526Z,10.60
2023-01-25T19:05:44.375Z,10.10
2023-01-25T19:07:56.965Z,10.90
2023-01-25T19:10:10.227Z,11.50
2023-01-25T19:12:23.012Z,9.50
2023-01-25T19:14:35.747Z,10.50
2023-01-25T19:16:48.380Z,9.90
2023-01-25T19:19:01.111Z,9.60
2023-01-25T19:21:16.069Z,10.90
2023-01-25T19:23:28.907Z,9.40
2023-01-25T19:25:41.539Z,10.50
2023-01-25T19:27:54.438Z,9.50
2023-01-25T19:30:07.265Z,9.90
2023-01-25T19:32:19.843Z,10.60
2023-01-25T19:34:32.742Z,10.30
2023-01-25T19:36:51.132Z,9.30
2023-01-25T19:39:05.104Z,9.70
2023-01-25T19:41:22.499Z,9.60
2023-01-25T19:46:28.781Z,8.70
2023-01-25T19:48:57.054Z,9.30
2023-01-25T19:51:24.871Z,9.10
2023-01-25T19:53:50.772Z,9.20
2023-01-25T19:56:17.524Z,8.50
2023-01-25T19:58:52.291Z,7.70
2023-01-25T20:01:17.993Z,8.30
2023-01-25T20:03:32.942Z,7.90
2023-01-25T20:06:08.259Z,7.90
2023-01-25T20:08:34.461Z,7.80
2023-01-25T20:11:13.506Z,8.20
2023-01-25T20:13:26.237Z,7.40
2023-01-25T20:15:38.725Z,7.80
2023-01-25T20:17:52.572Z,6.50
2023-01-25T20:20:06.485Z,5.20
2023-01-25T20:22:19.639Z,5.70
2023-01-25T20:24:32.506Z,6.00
2023-01-25T20:26:45.683Z,5.40
2023-01-25T20:29:00.287Z,5.80
2023-01-25T20:31:24.425Z,4.70
2023-01-25T20:33:37.349Z,4.80
2023-01-25T20:35:51.236Z,5.00
2023-01-25T20:38:03.987Z,4.70
2023-01-25T20:40:19.111Z,5.00
2023-01-25T20:42:31.993Z,4.70
2023-01-25T20:44:44.645Z,4.70
2023-01-25T20:46:58.342Z,4.70
2023-01-25T20:49:14.752Z,4.00
2023-01-25T20:51:27.927Z,4.10
2023-01-25T20:53:41.287Z,4.50
2023-01-25T20:56:00.728Z,4.00
2023-01-25T20:58:13.737Z,3.40
2023-01-25T21:00:27.355Z,3.70
2023-01-25T21:02:40.748Z,4.50
2023-01-25T21:04:53.698Z,3.40
2023-01-25T21:07:06.407Z,2.80
2023-01-25T21:09:19.179Z,2.60
2023-01-25T21:11:32.442Z,2.00
2023-01-25T21:13:45.530Z,2.50
2023-01-25T21:16:11.211Z,2.50
2023-01-25T21:18:24.630Z,3.10
2023-01-25T21:20:37.512Z,3.20
2023-01-25T21:22:50.141Z,2.90
2023-01-25T21:25:02.679Z,2.50
2023-01-25T21:27:15.665Z,2.40
2023-01-25T21:29:28.576Z,1.80
2023-01-25T21:31:43.566Z,1.90
2023-01-25T21:33:58.418Z,2.00
2023-01-25T21:36:13.750Z,2.80
2023-01-25T21:38:26.863Z,2.50
2023-01-25T21:40:39.500Z,2.80
2023-01-25T21:42:52.949Z,2.50
2023-01-25T21:45:22.175Z,2.30
2023-01-25T21:47:38.061Z,2.10
2023-01-25T21:50:07.138Z,2.10
2023-01-25T21:52:19.615Z,2.10
2023-01-25T21:54:33.695Z,2.60
2023-01-25T21:56:46.989Z,2.30
2023-01-25T21:59:00.085Z,2.10
2023-01-25T22:01:12.829Z,2.30
2023-01-25T22:03:25.635Z,2.30
2023-01-25T22:05:38.375Z,2.00
2023-01-25T22:07:50.910Z,2.10
2023-01-25T22:10:03.995Z,2.30
2023-01-25T22:12:16.676Z,2.30
2023-01-25T22:14:30.547Z,2.20
2023-01-25T22:16:43.108Z,1.60
2023-01-25T22:18:56.340Z,2.30
2023-01-25T22:21:11.337Z,2.20
2023-01-25T22:23:24.305Z,2.00
2023-01-25T22:25:37.190Z,2.20
2023-01-25T22:28:02.438Z,1.60
2023-01-25T22:30:17.396Z,1.50
2023-01-25T22:32:30.101Z,2.10
2023-01-25T22:34:43.061Z,1.50
2023-01-25T22:36:55.484Z,1.70
2023-01-25T22:39:08.378Z,1.70
2023-01-25T22:41:22.625Z,1.90
2023-01-25T22:43:35.643Z,1.90
2023-01-25T22:45:55.243Z,2.10
2023-01-25T22:48:07.895Z,2.40
2023-01-25T22:50:21.752Z,2.40
2023-01-25T22:52:34.575Z,2.10
2023-01-25T22:54:47.795Z,2.90
2023-01-25T22:57:01.725Z,2.90
2023-01-25T22:59:19.903Z,2.70
2023-01-25T23:01:34.347Z,2.50
2023-01-25T23:03:46.946Z,2.20
2023-01-25T23:06:07.292Z,2.80
2023-01-25T23:08:19.892Z,2.70
2023-01-25T23:10:32.586Z,2.70
2023-01-25T23:12:45.574Z,3.20
2023-01-25T23:15:00.211Z,2.60
2023-01-25T23:17:29.804Z,3.00
2023-01-25T23:19:42.962Z,2.90
2023-01-25T23:21:55.443Z,3.50
2023-01-25T23:24:08.995Z,2.80
2023-01-25T23:26:22.121Z,2.30
2023-01-25T23:28:34.827Z,2.80
2023-01-25T23:30:47.671Z,3.90
2023-01-25T23:33:00.667Z,3.40
2023-01-25T23:35:14.052Z,3.50
2023-01-25T23:37:26.788Z,3.80
2023-01-25T23:39:39.432Z,3.80
2023-01-25T23:41:53.480Z,4.00
2023-01-25T23:44:06.445Z,3.90
2023-01-25T23:46:20.023Z,3.50
2023-01-25T23:48:33.482Z,3.50
2023-01-25T23:50:46.260Z,3.40
2023-01-25T23:52:58.984Z,3.20
2023-01-25T23:55:12.767Z,3.50
2023-01-25T23:57:25.214Z,3.60
2023-01-25T23:59:39.233Z,4.20
